Time;durP1;ratioP1;P1;durP2;ratioP2;P2;SDS_P1;SDS_P2;PMS_P1;PMS_P2;Temp;Humidity;BMP_temperature;BMP_pressure;BME280_temperature;BME280_humidity;BME280_pressure;Samples;Min_cycle;Max_cycle;Signal;HPM_P1;HPM_P2
2022/01/25 00:26:37;;;;;;;48.28;27.98;;;2.60;99.90;;;;;;5018446;28;20033;-85
2022/01/25 00:29:12;;;;;;;45.15;27.95;;;2.60;99.90;;;;;;5017354;28;20037;-85
2022/01/25 00:31:39;;;;;;;46.38;27.48;;;2.60;99.90;;;;;;5020323;28;20028;-85
2022/01/25 00:34:06;;;;;;;46.55;27.42;;;2.50;99.90;;;;;;5019396;28;20215;-85
2022/01/25 00:36:32;;;;;;;42.63;26.65;;;2.50;99.90;;;;;;5017614;28;20329;-87
2022/01/25 00:38:58;;;;;;;46.35;28.50;;;2.50;99.90;;;;;;5019602;28;20126;-86
2022/01/25 00:41:25;;;;;;;45.38;26.80;;;2.40;99.90;;;;;;5034276;28;20030;-86
2022/01/25 00:43:51;;;;;;;46.78;28.92;;;2.50;99.90;;;;;;5020005;28;20326;-85
2022/01/25 00:46:20;;;;;;;44.13;26.80;;;2.50;99.90;;;;;;5019655;28;20022;-85
2022/01/25 00:48:49;;;;;;;41.60;26.42;;;2.50;99.90;;;;;;5019318;28;20502;-85
2022/01/25 00:54:16;;;;;;;42.13;24.60;;;2.50;99.90;;;;;;5024431;28;20045;-85
2022/01/25 00:56:46;;;;;;;44.53;24.05;;;2.50;99.90;;;;;;5038413;28;20191;-85
2022/01/25 00:59:15;;;;;;;40.80;23.83;;;2.40;99.90;;;;;;5023644;28;20021;-85
2022/01/25 01:01:43;;;;;;;37.63;22.90;;;2.40;99.90;;;;;;5024799;28;20018;-85
2022/01/25 01:04:09;;;;;;;37.70;24.20;;;2.40;99.90;;;;;;5024473;28;20133;-85
2022/01/25 01:06:35;;;;;;;31.77;21.67;;;2.40;99.90;;;;;;5022742;28;20028;-85
2022/01/25 01:09:01;;;;;;;34.85;21.52;;;2.40;99.90;;;;;;5023183;28;20060;-86
2022/01/25 01:11:37;;;;;;;33.53;21.38;;;2.40;99.90;;;;;;5037212;28;20017;-85
2022/01/25 01:48:06;;;;;;;29.95;19.08;;;2.20;99.90;;;;;;5020117;28;20022;-85
2022/01/25 01:50:35;;;;;;;28.95;19.52;;;2.30;99.90;;;;;;5023055;28;20037;-86
2022/01/25 01:53:05;;;;;;;32.17;19.80;;;2.30;99.90;;;;;;5021591;28;20020;-86
2022/01/25 01:55:32;;;;;;;29.77;20.30;;;2.30;99.90;;;;;;5018794;28;20017;-86
2022/01/25 01:57:59;;;;;;;30.38;19.52;;;2.30;99.90;;;;;;5021778;28;20038;-85
2022/01/25 02:00:37;;;;;;;29.42;19.85;;;2.30;99.90;;;;;;5017243;28;20173;-85
2022/01/25 02:03:04;;;;;;;28.45;19.45;;;2.30;99.90;;;;;;5023346;28;20025;-86
2022/01/25 02:05:32;;;;;;;27.98;19.23;;;2.20;99.90;;;;;;5023186;28;20218;-86
2022/01/25 02:07:58;;;;;;;29.35;19.30;;;2.20;99.90;;;;;;5021329;28;20022;-86
2022/01/25 02:10:24;;;;;;;30.98;19.92;;;2.20;99.90;;;;;;5023158;28;20043;-86
2022/01/25 02:12:51;;;;;;;29.58;19.48;;;2.20;99.90;;;;;;5019945;28;20024;-86
2022/01/25 02:15:18;;;;;;;29.08;19.23;;;2.20;99.90;;;;;;5021656;28;20516;-86
2022/01/25 02:22:59;;;;;;;30.27;19.65;;;2.00;99.90;;;;;;5022738;28;20063;-93
2022/01/25 02:25:25;;;;;;;27.55;17.70;;;1.90;99.90;;;;;;5021515;28;20032;-86
2022/01/25 02:27:51;;;;;;;30.35;19.65;;;1.90;99.90;;;;;;5020614;28;20110;-86
2022/01/25 02:30:17;;;;;;;32.22;19.65;;;1.90;99.90;;;;;;5020880;28;20018;-85
2022/01/25 02:32:43;;;;;;;30.23;18.90;;;1.90;99.90;;;;;;5019096;28;20222;-86
2022/01/25 02:35:10;;;;;;;31.13;19.48;;;1.80;99.90;;;;;;5019694;28;20026;-86
2022/01/25 02:37:38;;;;;;;29.80;19.08;;;1.80;99.90;;;;;;5022066;28;20084;-86
2022/01/25 02:40:04;;;;;;;32.55;20.15;;;1.70;99.90;;;;;;5019580;28;20045;-86
2022/01/25 02:42:30;;;;;;;31.33;19.42;;;1.70;99.90;;;;;;5018172;28;20064;-86
2022/01/25 02:44:56;;;;;;;29.77;19.23;;;1.70;99.90;;;;;;5019146;28;20034;-86
2022/01/25 02:50:06;;;;;;;;;;;1.70;99.90;;;;;;5022226;28;20033;-86
2022/01/25 02:52:32;;;;;;;28.70;18.25;;;1.70;99.90;;;;;;5020504;28;20566;-86
2022/01/25 02:54:58;;;;;;;27.70;18.33;;;1.60;99.90;;;;;;5021493;28;20044;-86
2022/01/25 02:57:24;;;;;;;26.83;18.70;;;1.60;99.90;;;;;;5021625;28;20085;-86
2022/01/25 02:59:50;;;;;;;29.33;18.08;;;1.60;99.90;;;;;;5022670;28;20069;-86
2022/01/25 03:02:16;;;;;;;28.10;18.73;;;1.60;99.90;;;;;;5021355;28;20063;-85
2022/01/25 03:04:42;;;;;;;27.73;18.35;;;1.60;99.90;;;;;;5019538;28;20288;-86
2022/01/25 03:07:08;;;;;;;28.23;18.00;;;1.60;99.90;;;;;;5021059;28;20010;-86
2022/01/25 03:09:35;;;;;;;27.48;18.38;;;1.60;99.90;;;;;;5020211;28;20032;-86
2022/01/25 03:12:04;;;;;;;26.75;18.00;;;1.60;99.90;;;;;;5018584;28;20041;-86
2022/01/25 03:14:33;;;;;;;26.48;17.67;;;1.50;99.90;;;;;;5021037;28;20025;-86
2022/01/25 03:22:13;;;;;;;27.20;17.73;;;1.50;99.90;;;;;;5019561;28;20096;-86
2022/01/25 03:24:39;;;;;;;25.40;17.25;;;1.50;99.90;;;;;;5019083;28;20041;-86
2022/01/25 03:27:06;;;;;;;27.00;17.67;;;1.50;99.90;;;;;;5019777;28;20017;-86
2022/01/25 03:29:32;;;;;;;24.50;16.58;;;1.50;99.90;;;;;;5035728;28;20471;-86
2022/01/25 03:31:57;;;;;;;27.70;16.65;;;1.50;99.90;;;;;;5016790;28;20022;-86
2022/01/25 03:34:23;;;;;;;25.40;17.17;;;1.50;99.90;;;;;;5021448;28;20329;-86
2022/01/25 03:36:49;;;;;;;25.65;17.42;;;1.50;99.90;;;;;;5016412;28;20022;-85
2022/01/25 03:39:15;;;;;;;25.58;16.90;;;1.50;99.90;;;;;;5021783;28;20109;-86
2022/01/25 03:41:41;;;;;;;24.70;17.13;;;1.50;99.90;;;;;;5020313;28;20045;-86
2022/01/25 03:44:06;;;;;;;24.95;16.75;;;1.40;99.90;;;;;;5020569;28;20057;-86
2022/01/25 03:51:47;;;;;;;26.40;16.88;;;1.40;99.90;;;;;;5020150;28;20387;-86
2022/01/25 03:54:13;;;;;;;26.50;17.48;;;1.30;99.90;;;;;;5021443;28;20029;-86
2022/01/25 03:56:39;;;;;;;26.95;17.42;;;1.40;99.90;;;;;;5018423;28;20024;-86
2022/01/25 03:59:06;;;;;;;25.08;16.58;;;1.40;99.90;;;;;;5019319;28;20313;-85
2022/01/25 04:01:33;;;;;;;24.05;15.93;;;1.30;99.90;;;;;;5018679;28;20430;-86
2022/01/25 04:04:12;;;;;;;24.95;16.63;;;1.30;99.90;;;;;;5015801;28;20050;-85
2022/01/25 04:06:38;;;;;;;27.60;16.50;;;1.30;99.90;;;;;;5018705;28;20213;-86
2022/01/25 04:09:07;;;;;;;25.25;16.73;;;1.20;99.90;;;;;;5019360;28;20084;-85
2022/01/25 04:11:33;;;;;;;24.88;16.25;;;1.20;99.90;;;;;;5019928;28;20017;-88
2022/01/25 04:13:59;;;;;;;25.20;16.13;;;1.30;99.90;;;;;;5019613;28;20033;-86
2022/01/25 04:16:33;;;;;;;24.80;16.15;;;1.30;99.90;;;;;;5020101;28;20017;-85
2022/01/25 04:26:40;;;;;;;23.05;16.02;;;1.20;99.90;;;;;;5021007;28;20037;-86
2022/01/25 04:29:06;;;;;;;25.20;15.93;;;1.20;99.90;;;;;;5025064;28;20021;-86
2022/01/25 04:31:32;;;;;;;23.38;15.70;;;1.20;99.90;;;;;;5021949;28;20026;-85
2022/01/25 04:34:36;;;;;;;24.63;16.17;;;1.30;99.90;;;;;;5021007;28;20056;-86
2022/01/25 04:50:57;;;;;;;24.45;15.85;;;1.30;99.90;;;;;;5024243;28;20249;-86
2022/01/25 04:56:05;;;;;;;22.95;15.25;;;1.30;99.90;;;;;;5024887;28;20183;-86
2022/01/25 04:58:58;;;;;;;24.42;15.57;;;1.30;99.90;;;;;;5020926;28;20037;-86
2022/01/25 05:01:17;;;;;;;22.40;15.45;;;1.40;99.90;;;;;;5024588;28;20044;-85
2022/01/25 05:06:39;;;;;;;;;;;1.30;99.90;;;;;;5015738;28;20034;-86
2022/01/25 05:09:10;;;;;;;21.70;14.65;;;1.40;99.90;;;;;;5022923;28;19901;-86
2022/01/25 05:11:40;;;;;;;24.60;15.93;;;1.30;99.90;;;;;;5021177;28;20026;-86
2022/01/25 05:16:38;;;;;;;20.45;14.45;;;1.30;99.90;;;;;;5024074;28;20030;-85
2022/01/25 05:24:26;;;;;;;26.73;16.65;;;1.30;99.90;;;;;;5023317;28;20085;-86
2022/01/25 05:26:52;;;;;;;22.40;15.07;;;1.30;99.90;;;;;;5021517;28;20025;-86
2022/01/25 05:29:18;;;;;;;23.73;15.57;;;1.30;99.90;;;;;;5022776;28;20030;-86
2022/01/25 05:31:44;;;;;;;24.77;15.88;;;1.30;99.90;;;;;;5022305;28;20193;-86
2022/01/25 05:34:10;;;;;;;25.38;16.30;;;1.20;99.90;;;;;;5023608;28;20026;-86
2022/01/25 05:36:37;;;;;;;26.73;17.08;;;1.30;99.90;;;;;;5023195;28;20049;-86
2022/01/25 05:39:10;;;;;;;25.90;16.80;;;1.30;99.90;;;;;;5022565;28;20236;-86
2022/01/25 05:41:36;;;;;;;26.73;17.23;;;1.30;99.90;;;;;;5022279;28;20226;-87
2022/01/25 05:44:24;;;;;;;27.80;18.50;;;1.30;99.90;;;;;;5020395;28;20113;-86
2022/01/25 05:49:23;;;;;;;23.95;15.55;;;1.20;99.90;;;;;;5023105;28;20021;-86
2022/01/25 05:51:49;;;;;;;22.95;14.93;;;1.20;99.90;;;;;;5035471;28;20022;-85
2022/01/25 05:54:16;;;;;;;23.88;15.57;;;1.30;99.90;;;;;;5020701;28;20026;-86
2022/01/25 05:56:41;;;;;;;23.42;16.20;;;1.30;99.90;;;;;;5022348;28;20036;-86
2022/01/25 05:59:07;;;;;;;21.25;14.50;;;1.30;99.90;;;;;;5019672;28;20097;-86
2022/01/25 06:01:34;;;;;;;21.48;14.23;;;1.40;99.90;;;;;;5019783;28;20018;-86
2022/01/25 06:04:00;;;;;;;21.10;14.00;;;1.30;99.90;;;;;;5022427;28;20097;-87
2022/01/25 06:06:27;;;;;;;20.80;14.02;;;1.30;99.90;;;;;;5020791;28;20025;-87
2022/01/25 06:08:53;;;;;;;24.35;15.40;;;1.30;99.90;;;;;;5022586;28;20029;-87
2022/01/25 06:11:20;;;;;;;24.98;15.05;;;1.30;99.90;;;;;;5022357;28;20049;-85
2022/01/25 06:13:46;;;;;;;21.02;14.57;;;1.30;99.90;;;;;;5017154;28;20033;-85
2022/01/25 06:16:12;;;;;;;22.95;14.75;;;1.40;99.90;;;;;;5021966;28;20017;-87
2022/01/25 06:18:37;;;;;;;22.30;15.00;;;1.40;99.90;;;;;;5019549;28;20053;-87
2022/01/25 06:21:03;;;;;;;21.80;14.18;;;1.40;99.90;;;;;;5021598;28;20072;-85
2022/01/25 06:23:29;;;;;;;22.15;15.10;;;1.40;99.90;;;;;;5021514;28;20052;-85
2022/01/25 06:25:55;;;;;;;19.85;14.93;;;1.30;99.90;;;;;;5039856;28;20105;-91
2022/01/25 06:28:20;;;;;;;22.15;14.23;;;1.30;99.90;;;;;;5042505;28;20022;-85
2022/01/25 06:30:46;;;;;;;22.67;14.48;;;1.30;99.90;;;;;;5042522;28;20044;-88
2022/01/25 06:33:12;;;;;;;23.55;14.85;;;1.30;99.90;;;;;;5042761;28;20010;-85
2022/01/25 06:35:38;;;;;;;20.55;13.98;;;1.40;99.90;;;;;;5041938;28;20125;-85
2022/01/25 06:38:04;;;;;;;24.20;15.48;;;1.40;99.90;;;;;;5042068;28;20071;-85
2022/01/25 06:40:30;;;;;;;20.25;13.63;;;1.40;99.90;;;;;;5042124;28;20018;-85
2022/01/25 06:42:56;;;;;;;21.90;14.38;;;1.40;99.90;;;;;;5038253;28;20045;-85
2022/01/25 06:45:24;;;;;;;21.17;14.45;;;1.30;99.90;;;;;;5039378;28;20317;-84
2022/01/25 06:47:50;;;;;;;21.58;14.65;;;1.40;99.90;;;;;;5041747;28;20056;-85
2022/01/25 06:50:18;;;;;;;21.35;14.23;;;1.40;99.90;;;;;;5034115;28;20025;-84
2022/01/25 06:52:45;;;;;;;21.55;14.70;;;1.30;99.90;;;;;;5030894;28;20477;-85
2022/01/25 06:55:13;;;;;;;22.13;14.18;;;1.30;99.90;;;;;;5031506;28;20025;-85
2022/01/25 06:57:40;;;;;;;23.95;15.50;;;1.30;99.90;;;;;;5032983;28;20029;-91
2022/01/25 07:00:09;;;;;;;22.90;15.50;;;1.30;99.90;;;;;;5030922;28;20052;-86
2022/01/25 07:02:35;;;;;;;22.35;15.52;;;1.40;99.90;;;;;;5029894;28;20021;-85
2022/01/25 07:05:01;;;;;;;25.75;14.75;;;1.40;99.90;;;;;;5031189;28;20375;-85
2022/01/25 07:07:28;;;;;;;21.77;14.63;;;1.30;99.90;;;;;;5031447;28;20525;-85
2022/01/25 07:09:54;;;;;;;22.20;15.20;;;1.30;99.90;;;;;;5031215;28;20033;-85
2022/01/25 07:12:20;;;;;;;27.67;16.85;;;1.30;99.90;;;;;;5029895;28;20398;-85
2022/01/25 07:14:45;;;;;;;32.05;18.27;;;1.30;99.90;;;;;;5031631;28;20033;-89
2022/01/25 07:17:11;;;;;;;33.65;21.27;;;1.20;99.90;;;;;;5033929;28;20022;-87
2022/01/25 07:19:37;;;;;;;33.85;19.92;;;1.30;99.90;;;;;;5029774;28;20052;-86
2022/01/25 07:22:03;;;;;;;32.80;19.45;;;1.30;99.90;;;;;;5028131;28;20018;-86
2022/01/25 07:24:28;;;;;;;29.55;18.42;;;1.40;99.90;;;;;;5030077;28;20501;-86
2022/01/25 07:26:54;;;;;;;25.92;17.55;;;1.40;99.90;;;;;;5031671;28;20022;-86
2022/01/25 07:29:20;;;;;;;27.83;18.02;;;1.40;99.90;;;;;;5031429;28;20095;-86
2022/01/25 07:31:46;;;;;;;33.60;21.20;;;1.40;99.90;;;;;;5029138;28;20025;-86
2022/01/25 07:34:11;;;;;;;38.45;24.25;;;1.40;99.90;;;;;;5030531;28;20099;-89
2022/01/25 07:36:38;;;;;;;45.03;24.95;;;1.40;99.90;;;;;;5029308;28;20021;-86
2022/01/25 07:39:05;;;;;;;44.92;23.90;;;1.40;99.90;;;;;;5029750;28;20021;-87
2022/01/25 07:41:31;;;;;;;32.35;20.27;;;1.40;99.90;;;;;;5030446;28;20029;-87
2022/01/25 07:43:59;;;;;;;33.88;20.55;;;1.40;99.90;;;;;;5028727;28;20046;-88
2022/01/25 07:46:25;;;;;;;28.95;18.70;;;1.40;99.90;;;;;;5030303;28;20022;-89
2022/01/25 07:48:52;;;;;;;34.13;19.15;;;1.40;99.90;;;;;;5029076;28;20035;-90
2022/01/25 07:51:18;;;;;;;33.25;19.23;;;1.40;99.90;;;;;;5030259;28;20025;-87
2022/01/25 07:53:44;;;;;;;27.80;17.45;;;1.40;99.90;;;;;;5030040;28;20107;-86
2022/01/25 07:56:10;;;;;;;30.55;17.15;;;1.40;99.90;;;;;;5030339;28;20462;-87
2022/01/25 07:58:37;;;;;;;33.67;20.35;;;1.30;99.90;;;;;;5029967;28;20033;-86
2022/01/25 08:01:03;;;;;;;37.53;20.55;;;1.40;99.90;;;;;;5030079;28;20118;-87
2022/01/25 08:03:29;;;;;;;32.35;19.27;;;1.40;99.90;;;;;;5028614;28;20095;-89
2022/01/25 08:05:55;;;;;;;34.10;19.00;;;1.40;99.90;;;;;;5028924;28;20025;-87
2022/01/25 08:08:21;;;;;;;35.08;20.40;;;1.50;99.90;;;;;;5029976;28;20025;-87
2022/01/25 08:10:48;;;;;;;42.70;31.00;;;1.50;99.90;;;;;;5030200;28;20389;-87
2022/01/25 08:13:13;;;;;;;41.25;28.67;;;1.60;99.90;;;;;;5030607;28;20021;-87
2022/01/25 08:15:39;;;;;;;38.65;21.65;;;1.60;99.90;;;;;;5029001;28;20440;-89
2022/01/25 08:18:05;;;;;;;27.75;19.30;;;1.60;99.90;;;;;;5028886;28;20045;-87
2022/01/25 08:20:31;;;;;;;30.80;18.17;;;1.60;99.90;;;;;;5030242;28;20045;-89
2022/01/25 08:22:57;;;;;;;23.35;17.25;;;1.70;99.90;;;;;;5030177;28;20029;-87
2022/01/25 08:25:23;;;;;;;29.67;17.38;;;1.80;99.90;;;;;;5030007;28;20164;-86
2022/01/25 08:27:48;;;;;;;25.67;17.50;;;1.80;99.90;;;;;;5030341;28;20056;-87
2022/01/25 08:30:14;;;;;;;26.25;18.08;;;1.80;99.90;;;;;;5030387;28;20065;-87
2022/01/25 08:32:40;;;;;;;25.20;16.83;;;1.90;99.90;;;;;;5030225;28;20052;-87
2022/01/25 08:35:07;;;;;;;29.75;17.10;;;2.00;99.90;;;;;;5028508;28;20083;-89
2022/01/25 08:37:32;;;;;;;25.50;16.92;;;2.10;99.90;;;;;;5029595;28;20029;-87
2022/01/25 08:39:58;;;;;;;26.80;15.75;;;2.20;99.90;;;;;;5029655;28;20459;-88
2022/01/25 08:42:24;;;;;;;33.95;17.00;;;2.20;99.90;;;;;;5028069;28;20018;-93
2022/01/25 08:44:50;;;;;;;25.05;16.10;;;2.20;99.90;;;;;;5029666;28;20041;-89
2022/01/25 08:47:16;;;;;;;25.60;15.77;;;2.30;99.90;;;;;;5029947;28;20045;-88
2022/01/25 08:49:42;;;;;;;29.88;16.42;;;2.30;99.90;;;;;;5030239;28;20112;-89
2022/01/25 08:52:07;;;;;;;28.63;15.98;;;2.40;99.90;;;;;;5029666;28;20017;-87
2022/01/25 08:54:33;;;;;;;26.27;15.95;;;2.50;99.90;;;;;;5029233;28;20033;-87
2022/01/25 08:57:00;;;;;;;35.30;16.55;;;2.60;99.90;;;;;;5029968;28;20018;-88
2022/01/25 08:59:26;;;;;;;26.95;15.55;;;2.60;99.90;;;;;;5028701;28;20071;-88
2022/01/25 09:01:53;;;;;;;28.52;16.52;;;2.70;99.90;;;;;;5045029;28;20494;-90
2022/01/25 09:04:19;;;;;;;28.02;16.77;;;2.70;99.90;;;;;;5030324;28;20065;-87
2022/01/25 09:06:45;;;;;;;26.70;18.42;;;2.70;99.90;;;;;;5029919;28;20211;-88
2022/01/25 09:09:11;;;;;;;32.08;18.30;;;2.80;99.90;;;;;;5033297;28;20211;-87
2022/01/25 09:11:39;;;;;;;25.08;16.27;;;2.90;99.90;;;;;;5032465;28;20410;-88
2022/01/25 09:14:05;;;;;;;29.15;16.70;;;2.90;99.90;;;;;;5033700;28;20025;-88
2022/01/25 09:16:33;;;;;;;26.65;16.95;;;2.90;99.90;;;;;;5032211;28;20025;-88
2022/01/25 09:18:59;;;;;;;26.80;17.75;;;3.00;99.90;;;;;;5033815;28;20056;-87
2022/01/25 09:21:24;;;;;;;29.33;17.42;;;3.10;99.90;;;;;;5032008;28;20502;-88
2022/01/25 09:23:50;;;;;;;26.33;16.52;;;3.20;99.90;;;;;;5032511;28;20018;-88
2022/01/25 09:26:17;;;;;;;28.30;16.63;;;3.30;99.90;;;;;;5048567;28;20021;-88
2022/01/25 09:28:43;;;;;;;24.27;17.02;;;3.30;99.90;;;;;;5031635;28;20022;-87
2022/01/25 09:31:09;;;;;;;30.75;16.58;;;3.40;99.90;;;;;;5033084;28;20489;-88
2022/01/25 09:33:34;;;;;;;29.08;17.67;;;3.40;99.90;;;;;;5048679;28;20421;-88
2022/01/25 09:36:00;;;;;;;31.95;19.83;;;3.40;99.90;;;;;;5032996;28;20014;-87
2022/01/25 09:38:26;;;;;;;32.85;19.90;;;3.40;99.90;;;;;;5032770;28;20083;-90
2022/01/25 09:40:52;;;;;;;27.30;17.15;;;3.50;99.90;;;;;;5032446;28;20288;-87
2022/01/25 09:43:20;;;;;;;32.10;17.98;;;3.50;99.90;;;;;;5033847;28;20426;-88
2022/01/25 09:45:47;;;;;;;25.90;18.10;;;3.60;99.90;;;;;;5032036;28;20021;-87
2022/01/25 09:48:14;;;;;;;27.70;17.63;;;3.80;99.90;;;;;;5033335;28;20021;-87
2022/01/25 09:50:40;;;;;;;28.98;18.35;;;3.80;99.90;;;;;;5031247;28;20160;-88
2022/01/25 09:53:07;;;;;;;30.23;18.17;;;3.80;99.90;;;;;;5032223;28;20238;-88
2022/01/25 09:55:36;;;;;;;30.63;19.10;;;3.90;99.90;;;;;;5032805;28;20028;-88
2022/01/25 09:58:02;;;;;;;41.55;19.90;;;3.90;99.90;;;;;;5032731;28;20021;-89
2022/01/25 10:00:30;;;;;;;35.60;19.48;;;4.00;99.90;;;;;;5031683;28;20036;-87
2022/01/25 10:03:08;;;;;;;33.60;19.35;;;4.10;99.90;;;;;;5030845;28;20017;-87
2022/01/25 10:05:38;;;;;;;31.40;19.98;;;4.20;99.90;;;;;;5032883;28;20036;-88
2022/01/25 10:08:10;;;;;;;35.17;20.00;;;4.30;99.90;;;;;;5032487;28;20021;-87
2022/01/25 10:10:41;;;;;;;34.08;19.65;;;4.30;99.90;;;;;;5032790;28;20029;-90
2022/01/25 10:13:07;;;;;;;33.28;18.63;;;4.20;99.90;;;;;;5032553;28;20505;-88
2022/01/25 10:15:33;;;;;;;38.25;20.60;;;4.20;99.90;;;;;;5032764;28;20497;-87
2022/01/25 10:17:59;;;;;;;30.60;19.38;;;4.40;99.90;;;;;;5032144;28;20022;-87
2022/01/25 10:20:28;;;;;;;28.23;19.45;;;4.40;99.90;;;;;;5031866;28;20033;-88
2022/01/25 10:22:57;;;;;;;31.58;19.98;;;4.50;99.90;;;;;;5031607;28;20028;-90
2022/01/25 10:25:45;;;;;;;29.45;19.95;;;4.60;99.90;;;;;;5030230;28;20391;-87
2022/01/25 10:28:12;;;;;;;29.45;20.80;;;4.80;99.90;;;;;;5030319;28;20493;-89
2022/01/25 10:30:48;;;;;;;36.28;19.80;;;4.90;99.90;;;;;;5030682;28;20124;-88
2022/01/25 10:33:34;;;;;;;32.80;20.88;;;5.10;99.90;;;;;;5031839;28;20021;-90
2022/01/25 10:36:16;;;;;;;32.85;19.67;;;5.10;99.90;;;;;;5030474;28;20686;-87
2022/01/25 10:38:44;;;;;;;35.10;22.27;;;5.00;99.90;;;;;;5031234;28;20017;-87
2022/01/25 10:41:12;;;;;;;38.53;24.23;;;5.10;99.90;;;;;;5046703;28;20033;-88
2022/01/25 10:43:40;;;;;;;35.67;22.85;;;5.30;99.90;;;;;;5031361;28;20103;-88
2022/01/25 10:46:31;;;;;;;37.33;22.80;;;5.40;99.90;;;;;;5031345;28;20067;-88
2022/01/25 10:48:58;;;;;;;39.10;21.95;;;5.60;99.90;;;;;;5031229;28;20662;-90
2022/01/25 10:51:27;;;;;;;30.67;20.58;;;5.70;99.90;;;;;;5030033;28;20030;-87
2022/01/25 10:54:16;;;;;;;33.13;21.55;;;5.80;99.90;;;;;;5031194;28;20037;-87
2022/01/25 10:57:02;;;;;;;31.13;20.45;;;5.90;99.90;;;;;;5031703;28;20057;-88
2022/01/25 10:59:32;;;;;;;30.00;19.60;;;5.90;99.90;;;;;;5029509;28;20029;-88
2022/01/25 11:02:04;;;;;;;31.45;20.33;;;6.00;99.90;;;;;;5029959;28;20650;-87
2022/01/25 11:04:36;;;;;;;28.80;19.83;;;6.10;99.90;;;;;;5031228;28;20586;-88
2022/01/25 11:07:03;;;;;;;30.42;20.23;;;6.10;99.90;;;;;;5030494;28;20026;-89
2022/01/25 11:09:37;;;;;;;29.02;17.75;;;6.20;99.90;;;;;;5029925;28;20440;-88
2022/01/25 11:12:06;;;;;;;30.33;20.67;;;6.40;99.90;;;;;;5031021;28;20381;-88
2022/01/25 11:14:53;;;;;;;31.35;20.10;;;6.40;99.90;;;;;;5031577;28;20037;-88
2022/01/25 11:17:24;;;;;;;31.08;19.98;;;6.50;99.90;;;;;;5029822;28;20029;-90
2022/01/25 11:19:50;;;;;;;30.70;19.30;;;6.70;99.90;;;;;;5031626;28;20052;-89
2022/01/25 11:22:20;;;;;;;35.28;19.45;;;6.70;99.90;;;;;;5030728;28;20074;-89
2022/01/25 11:24:57;;;;;;;28.38;19.30;;;6.70;99.90;;;;;;5030030;28;20402;-89
2022/01/25 11:27:25;;;;;;;30.25;20.63;;;6.80;99.90;;;;;;5029115;28;20021;-88
2022/01/25 11:29:54;;;;;;;31.35;21.00;;;7.00;99.90;;;;;;5031395;28;20040;-88
2022/01/25 11:32:24;;;;;;;28.08;20.95;;;7.10;99.90;;;;;;5031421;28;20025;-89
2022/01/25 11:34:52;;;;;;;30.25;19.92;;;7.20;99.90;;;;;;5031439;28;20389;-88
2022/01/25 11:37:19;;;;;;;29.75;20.35;;;7.30;99.90;;;;;;5030104;28;20026;-90
2022/01/25 11:39:47;;;;;;;30.30;20.33;;;7.40;99.90;;;;;;5033951;28;20493;-89
2022/01/25 11:42:25;;;;;;;32.10;20.67;;;7.40;99.90;;;;;;5031002;28;20072;-89
2022/01/25 11:44:54;;;;;;;30.17;20.77;;;7.50;99.90;;;;;;5030643;28;20040;-89
2022/01/25 11:47:30;;;;;;;33.85;21.15;;;7.60;99.90;;;;;;5030440;28;20040;-91
2022/01/25 11:50:00;;;;;;;43.13;30.33;;;7.60;99.90;;;;;;5029286;28;20033;-88
2022/01/25 11:52:28;;;;;;;36.95;21.83;;;7.70;99.90;;;;;;5028825;28;20044;-88
2022/01/25 11:55:33;;;;;;;31.77;21.77;;;7.80;99.90;;;;;;5030709;28;20091;-90
2022/01/25 11:58:03;;;;;;;;;;;7.80;99.90;;;;;;5031306;28;20532;-88
2022/01/25 12:00:38;;;;;;;28.00;19.83;;;7.90;99.90;;;;;;5031191;28;19995;-88
2022/01/25 12:03:24;;;;;;;34.40;20.52;;;8.00;99.90;;;;;;5030976;28;20030;-89
2022/01/25 12:06:22;;;;;;;29.90;21.45;;;8.10;99.90;;;;;;5038095;28;20095;-88
2022/01/25 12:11:37;;;;;;;31.83;20.67;;;8.20;99.90;;;;;;5047707;28;20177;-87
2022/01/25 12:14:26;;;;;;;34.03;22.00;;;8.20;99.90;;;;;;5043328;28;20098;-88
2022/01/25 12:16:58;;;;;;;31.02;21.75;;;8.20;99.90;;;;;;5043739;28;20029;-89
2022/01/25 12:19:51;;;;;;;28.55;21.55;;;8.20;99.90;;;;;;5044730;28;20033;-88
2022/01/25 12:22:46;;;;;;;32.28;21.65;;;8.30;99.90;;;;;;5046088;28;20052;-88
2022/01/25 12:25:45;;;;;;;29.20;20.35;;;8.30;99.90;;;;;;5049190;28;20029;-87
2022/01/25 12:28:23;;;;;;;29.80;20.13;;;8.30;99.90;;;;;;5050203;28;20308;-88
2022/01/25 12:30:48;;;;;;;29.35;21.30;;;8.30;99.90;;;;;;5047716;28;20105;-88
2022/01/25 12:33:26;;;;;;;30.30;20.77;;;8.40;99.90;;;;;;5045016;28;20014;-88
2022/01/25 12:36:00;;;;;;;29.48;21.05;;;8.30;99.90;;;;;;5046525;28;20025;-88
2022/01/25 12:38:38;;;;;;;28.27;19.55;;;8.30;99.90;;;;;;5046309;28;20052;-87
2022/01/25 12:41:10;;;;;;;25.90;19.13;;;8.30;99.90;;;;;;5043881;28;20013;-87
2022/01/25 12:43:38;;;;;;;23.27;19.20;;;8.20;99.90;;;;;;5047392;28;20230;-88
2022/01/25 12:46:15;;;;;;;26.88;18.85;;;8.30;99.90;;;;;;5047264;28;20052;-87
2022/01/25 12:48:47;;;;;;;23.60;18.00;;;8.20;99.90;;;;;;5046690;28;20026;-89
2022/01/25 12:51:19;;;;;;;25.58;18.20;;;8.10;99.90;;;;;;5049783;28;20055;-87
2022/01/25 12:53:50;;;;;;;22.38;17.85;;;8.10;99.90;;;;;;5050131;28;20025;-89
2022/01/25 12:56:21;;;;;;;22.83;18.60;;;8.20;99.90;;;;;;5055042;28;20032;-88
2022/01/25 12:58:54;;;;;;;23.58;17.42;;;8.20;99.90;;;;;;5050261;28;20029;-88
2022/01/25 13:01:22;;;;;;;28.48;19.02;;;8.10;99.90;;;;;;5050687;28;20382;-88
2022/01/25 13:03:59;;;;;;;28.98;17.63;;;8.20;99.90;;;;;;5046474;28;20077;-88
2022/01/25 13:06:28;;;;;;;23.27;17.52;;;8.20;99.90;;;;;;5037024;28;20017;-87
2022/01/25 13:09:20;;;;;;;24.33;18.35;;;8.30;99.90;;;;;;5035437;28;20106;-88
2022/01/25 13:14:48;;;;;;;25.33;17.33;;;8.40;99.90;;;;;;5034596;28;20033;-87
2022/01/25 13:17:19;;;;;;;24.15;18.25;;;8.30;99.90;;;;;;5034357;28;20037;-87
2022/01/25 13:19:56;;;;;;;27.10;18.45;;;8.40;99.90;;;;;;5033192;28;20021;-88
2022/01/25 13:22:33;;;;;;;25.17;19.20;;;8.40;99.90;;;;;;5033740;28;20044;-87
2022/01/25 13:25:20;;;;;;;27.38;19.70;;;8.50;99.90;;;;;;5034194;28;20037;-90
2022/01/25 13:27:48;;;;;;;30.90;19.10;;;8.40;99.90;;;;;;5033276;28;20022;-89
2022/01/25 13:33:01;;;;;;;25.38;19.45;;;8.50;99.90;;;;;;5033359;28;20033;-87
2022/01/25 13:35:34;;;;;;;29.67;19.25;;;8.60;99.90;;;;;;5032926;28;20033;-87
2022/01/25 13:38:19;;;;;;;28.05;19.55;;;8.60;99.90;;;;;;5032773;28;20025;-88
2022/01/25 13:40:51;;;;;;;26.45;19.52;;;8.60;99.90;;;;;;5032966;28;20046;-90
2022/01/25 13:45:57;;;;;;;28.00;20.10;;;8.60;99.90;;;;;;5032893;28;20072;-87
2022/01/25 13:48:26;;;;;;;26.98;19.67;;;8.80;99.90;;;;;;5032523;28;20087;-88
2022/01/25 13:50:54;;;;;;;31.15;21.10;;;8.70;99.90;;;;;;5030898;28;20048;-89
2022/01/25 13:53:20;;;;;;;33.38;20.90;;;8.80;99.90;;;;;;5031502;28;20036;-87
2022/01/25 13:55:51;;;;;;;33.58;23.00;;;8.80;99.90;;;;;;5032654;28;20029;-88
2022/01/25 13:58:27;;;;;;;28.88;20.10;;;8.90;99.90;;;;;;5032446;28;20114;-87
2022/01/25 14:00:54;;;;;;;36.80;21.45;;;8.90;99.90;;;;;;5031303;28;20029;-88
2022/01/25 14:03:29;;;;;;;28.15;20.75;;;8.90;99.90;;;;;;5030962;28;20390;-87
2022/01/25 14:05:55;;;;;;;34.95;22.00;;;9.00;99.90;;;;;;5030831;28;20394;-88
2022/01/25 14:08:43;;;;;;;61.58;22.80;;;9.10;99.90;;;;;;5032276;28;20448;-88
2022/01/25 14:11:26;;;;;;;37.40;20.67;;;9.10;99.90;;;;;;5030904;28;20132;-87
2022/01/25 14:24:54;;;;;;;34.65;22.40;;;9.30;99.90;;;;;;5032270;28;20041;-89
2022/01/25 14:27:24;;;;;;;35.80;22.83;;;9.30;99.90;;;;;;5032010;28;20492;-88
2022/01/25 14:29:52;;;;;;;32.83;22.85;;;9.30;99.90;;;;;;5030533;28;20030;-87
2022/01/25 14:32:38;;;;;;;32.20;22.80;;;9.40;99.90;;;;;;5030536;28;20025;-87
2022/01/25 14:35:07;;;;;;;27.75;22.10;;;9.50;99.90;;;;;;5031445;28;20037;-89
2022/01/25 14:37:33;;;;;;;32.17;22.80;;;9.40;99.90;;;;;;5031708;28;20088;-88
2022/01/25 14:40:11;;;;;;;31.98;22.73;;;9.40;99.90;;;;;;5031875;28;20018;-91
2022/01/25 14:42:41;;;;;;;36.08;22.75;;;9.50;99.90;;;;;;5030294;28;20561;-88
2022/01/25 14:45:14;;;;;;;31.67;21.88;;;9.40;99.90;;;;;;5031416;28;20048;-88
2022/01/25 14:47:45;;;;;;;33.50;23.52;;;9.50;99.90;;;;;;5030144;28;20021;-88
2022/01/25 14:50:20;;;;;;;32.25;23.65;;;9.60;99.90;;;;;;5031506;28;20021;-88
2022/01/25 14:53:12;;;;;;;33.08;23.05;;;9.60;99.90;;;;;;5031045;28;20122;-88
2022/01/25 14:55:40;;;;;;;32.42;23.10;;;9.60;99.90;;;;;;5031204;28;20013;-87
2022/01/25 15:00:48;;;;;;;31.33;22.85;;;9.50;99.90;;;;;;5031448;28;20029;-88
2022/01/25 15:03:16;;;;;;;29.55;22.70;;;9.50;99.90;;;;;;5030217;28;20037;-88
2022/01/25 15:05:42;;;;;;;30.50;22.05;;;9.50;99.90;;;;;;5030142;28;20413;-88
2022/01/25 15:08:08;;;;;;;30.88;21.70;;;9.40;99.90;;;;;;5031131;28;20104;-87
2022/01/25 15:10:34;;;;;;;29.35;21.58;;;9.40;99.90;;;;;;5030975;28;20447;-88
2022/01/25 15:13:03;;;;;;;26.00;20.00;;;9.30;99.90;;;;;;5031085;28;20026;-88